createdAt,value
2022-12-01T00:04:30.870Z,0
2022-12-01T00:09:30.848Z,0
2022-12-01T00:14:30.823Z,0
2022-12-01T00:19:30.868Z,0
2022-12-01T00:24:30.824Z,0
2022-12-01T00:29:30.805Z,0
2022-12-01T00:34:30.862Z,0
2022-12-01T00:39:30.856Z,0
2022-12-01T00:44:30.912Z,0
2022-12-01T00:49:30.842Z,0
2022-12-01T00:54:30.822Z,0
2022-12-01T00:59:30.791Z,0
2022-12-01T01:04:30.860Z,0
2022-12-01T01:09:30.873Z,0
2022-12-01T01:14:31.006Z,0
2022-12-01T01:19:32.668Z,0
2022-12-01T01:24:31.051Z,0
2022-12-01T01:29:30.839Z,0
2022-12-01T01:34:30.897Z,0
2022-12-01T01:39:30.826Z,0
2022-12-01T01:44:30.836Z,0
2022-12-01T01:49:30.869Z,0
2022-12-01T01:54:30.799Z,0
2022-12-01T01:59:30.868Z,0
2022-12-01T02:14:30.895Z,0
2022-12-01T02:19:30.898Z,0
2022-12-01T02:24:30.849Z,0
2022-12-01T02:29:30.814Z,0
2022-12-01T02:34:30.832Z,0
2022-12-01T02:39:30.840Z,0
2022-12-01T02:44:30.843Z,0
2022-12-01T02:49:30.817Z,0
2022-12-01T02:54:30.847Z,0
2022-12-01T02:59:30.839Z,0
2022-12-01T03:04:31.000Z,0
2022-12-01T03:09:30.835Z,0
2022-12-01T03:14:30.935Z,0
2022-12-01T03:19:30.918Z,0
2022-12-01T03:24:30.865Z,0
2022-12-01T03:29:30.853Z,0
2022-12-01T03:34:30.868Z,0
2022-12-01T03:39:30.960Z,0
2022-12-01T03:44:30.840Z,0
2022-12-01T03:49:30.839Z,0
2022-12-01T03:54:30.841Z,0
2022-12-01T03:59:30.855Z,0
2022-12-01T04:04:30.838Z,0
2022-12-01T04:09:30.816Z,0
2022-12-01T04:14:30.908Z,0
2022-12-01T04:19:30.825Z,0
2022-12-01T04:24:31.177Z,0
2022-12-01T04:29:30.860Z,0
2022-12-01T04:34:30.856Z,0
2022-12-01T04:39:30.947Z,0
2022-12-01T04:44:35.116Z,0
2022-12-01T04:49:30.837Z,0
2022-12-01T04:54:30.866Z,0
2022-12-01T04:59:30.866Z,0
2022-12-01T05:04:30.840Z,0
2022-12-01T05:09:31.215Z,0
2022-12-01T05:14:30.938Z,0
2022-12-01T05:19:30.952Z,0
2022-12-01T05:24:30.854Z,0
2022-12-01T05:29:30.933Z,0
2022-12-01T05:34:30.974Z,0
2022-12-01T05:39:30.873Z,0
2022-12-01T05:44:30.872Z,0
2022-12-01T05:49:31.031Z,0
2022-12-01T05:54:30.860Z,0
2022-12-01T05:59:30.833Z,0
2022-12-01T06:04:30.893Z,0
2022-12-01T06:09:30.834Z,0
2022-12-01T06:14:30.835Z,0
2022-12-01T06:19:30.867Z,0
2022-12-01T06:24:30.860Z,0
2022-12-01T06:29:30.876Z,0
2022-12-01T06:34:30.967Z,0
2022-12-01T06:39:30.888Z,0
2022-12-01T06:44:30.855Z,0
2022-12-01T06:49:31.004Z,0
2022-12-01T06:54:30.889Z,0
2022-12-01T06:59:30.882Z,0
2022-12-01T07:04:30.967Z,0
2022-12-01T07:09:30.860Z,0
2022-12-01T07:14:30.952Z,0
2022-12-01T07:19:30.939Z,0
2022-12-01T07:24:30.911Z,0
2022-12-01T07:29:30.912Z,266
2022-12-01T07:34:30.871Z,266
2022-12-01T07:39:30.854Z,268
2022-12-01T07:44:30.884Z,269
2022-12-01T07:49:30.995Z,271
2022-12-01T07:54:30.879Z,271
2022-12-01T07:59:30.897Z,273
2022-12-01T08:04:30.877Z,276
2022-12-01T08:09:30.893Z,276
2022-12-01T08:14:30.933Z,277
2022-12-01T08:19:30.996Z,278
2022-12-01T08:24:30.883Z,278
2022-12-01T08:29:30.964Z,281
2022-12-01T08:34:30.880Z,284
2022-12-01T08:39:30.878Z,289
2022-12-01T08:44:30.931Z,298
2022-12-01T08:49:30.843Z,300
2022-12-01T08:54:30.883Z,296
2022-12-01T08:59:30.886Z,300
2022-12-01T09:04:30.902Z,299
2022-12-01T09:09:30.865Z,304
2022-12-01T09:14:30.934Z,316
2022-12-01T09:19:30.875Z,322
2022-12-01T09:24:30.894Z,321
2022-12-01T09:29:31.035Z,319
2022-12-01T09:34:30.998Z,325
2022-12-01T09:39:30.960Z,340
2022-12-01T09:44:30.880Z,349
2022-12-01T09:49:30.908Z,352
2022-12-01T09:54:30.904Z,353
2022-12-01T09:59:30.916Z,356
2022-12-01T10:04:30.887Z,361
2022-12-01T10:09:30.886Z,371
2022-12-01T10:14:31.010Z,394
2022-12-01T10:19:30.937Z,357
2022-12-01T10:24:30.893Z,351
2022-12-01T10:29:30.878Z,341
2022-12-01T10:34:31.048Z,353
2022-12-01T10:39:30.972Z,358
2022-12-01T10:44:30.906Z,361
2022-12-01T10:49:30.902Z,353
2022-12-01T10:54:30.914Z,346
2022-12-01T10:59:30.917Z,335
2022-12-01T11:04:30.904Z,333
2022-12-01T11:09:30.951Z,351
2022-12-01T11:14:30.910Z,357
2022-12-01T11:19:30.934Z,331
2022-12-01T11:24:30.985Z,339
2022-12-01T11:29:30.954Z,334
2022-12-01T11:34:30.882Z,314
2022-12-01T11:39:30.910Z,319
2022-12-01T11:44:51.643Z,330
2022-12-01T11:49:30.909Z,334
2022-12-01T11:54:30.886Z,332
2022-12-01T11:59:30.914Z,325
2022-12-01T12:04:30.892Z,316
2022-12-01T12:09:30.927Z,308
2022-12-01T12:14:30.990Z,312
2022-12-01T12:19:45.416Z,304
2022-12-01T12:24:30.906Z,308
2022-12-01T12:29:30.906Z,301
2022-12-01T12:34:30.924Z,291
2022-12-01T12:39:30.951Z,290
2022-12-01T12:44:36.973Z,289
2022-12-01T12:49:31.035Z,288
2022-12-01T12:54:30.905Z,286
2022-12-01T12:59:30.945Z,285
2022-12-01T13:04:30.920Z,280
2022-12-01T13:09:30.890Z,276
2022-12-01T13:14:30.974Z,279
2022-12-01T13:19:30.890Z,273
2022-12-01T13:24:30.877Z,272
2022-12-01T13:29:30.881Z,275
2022-12-01T13:34:30.889Z,276
2022-12-01T13:39:30.949Z,275
2022-12-01T13:44:30.932Z,275
2022-12-01T13:49:33.906Z,274
2022-12-01T13:54:30.932Z,276
2022-12-01T13:59:30.939Z,276
2022-12-01T14:04:30.951Z,275
2022-12-01T14:09:30.922Z,273
2022-12-01T14:14:31.043Z,270
2022-12-01T14:19:31.051Z,270
2022-12-01T14:24:30.883Z,270
2022-12-01T14:29:30.912Z,268
2022-12-01T14:34:30.920Z,266
2022-12-01T14:39:30.943Z,265
2022-12-01T14:44:30.998Z,265
2022-12-01T14:49:30.887Z,265
2022-12-01T14:54:30.940Z,0
2022-12-01T14:59:30.970Z,0
2022-12-01T15:04:30.942Z,0
2022-12-01T15:09:35.105Z,0
2022-12-01T15:14:31.160Z,0
2022-12-01T15:19:30.900Z,0
2022-12-01T15:24:30.951Z,0
2022-12-01T15:29:30.914Z,0
2022-12-01T15:34:30.997Z,0
2022-12-01T15:39:30.957Z,0
2022-12-01T15:44:30.889Z,0
2022-12-01T15:49:31.041Z,0
2022-12-01T15:54:30.904Z,0
2022-12-01T15:59:30.979Z,0
2022-12-01T16:04:30.951Z,0
2022-12-01T16:09:30.921Z,0
2022-12-01T16:14:30.996Z,0
2022-12-01T16:19:30.926Z,0
2022-12-01T16:24:30.944Z,0
2022-12-01T16:29:30.902Z,0
2022-12-01T16:34:45.632Z,0
2022-12-01T16:39:30.959Z,0
2022-12-01T16:44:30.954Z,0
2022-12-01T16:49:30.980Z,0
2022-12-01T16:54:30.966Z,0
2022-12-01T16:59:30.941Z,0
2022-12-01T17:04:30.969Z,0
2022-12-01T17:09:30.993Z,0
2022-12-01T17:14:31.027Z,0
2022-12-01T17:19:31.024Z,0
2022-12-01T17:24:30.950Z,0
2022-12-01T17:29:30.898Z,0
2022-12-01T17:34:30.951Z,0
2022-12-01T17:39:31.085Z,0
2022-12-01T17:44:30.979Z,0
2022-12-01T17:49:30.945Z,0
2022-12-01T17:54:30.922Z,0
2022-12-01T17:59:30.962Z,0
2022-12-01T18:04:31.016Z,0
2022-12-01T18:09:30.949Z,0
2022-12-01T18:14:31.042Z,0
2022-12-01T18:19:30.964Z,0
2022-12-01T18:24:30.935Z,0
2022-12-01T18:29:30.906Z,0
2022-12-01T18:34:30.951Z,0
2022-12-01T18:39:31.126Z,0
2022-12-01T18:44:30.920Z,0
2022-12-01T18:49:30.914Z,0
2022-12-01T18:54:30.936Z,0
2022-12-01T18:59:31.021Z,0
2022-12-01T19:04:31.003Z,0
2022-12-01T19:09:30.955Z,0
2022-12-01T19:14:30.982Z,0
2022-12-01T19:19:37.318Z,0
2022-12-01T19:24:30.910Z,0
2022-12-01T19:29:30.960Z,0
2022-12-01T19:34:30.979Z,0
2022-12-01T19:39:30.967Z,0
2022-12-01T19:44:31.023Z,0
2022-12-01T19:49:31.047Z,0
2022-12-01T19:54:30.962Z,0
2022-12-01T19:59:30.957Z,0
2022-12-01T20:04:31.085Z,0
2022-12-01T20:09:30.977Z,0
2022-12-01T20:14:31.461Z,0
2022-12-01T20:19:31.056Z,0
2022-12-01T20:24:30.955Z,0
2022-12-01T20:29:31.111Z,0
2022-12-01T20:34:31.017Z,0
2022-12-01T20:39:30.980Z,0
2022-12-01T20:44:30.950Z,0
2022-12-01T20:49:30.995Z,0
2022-12-01T20:54:31.955Z,0
2022-12-01T20:59:30.958Z,0
2022-12-01T21:04:30.941Z,0
2022-12-01T21:09:30.981Z,0
2022-12-01T21:14:30.985Z,0
2022-12-01T21:19:30.982Z,0
2022-12-01T21:24:36.874Z,0
2022-12-01T21:29:31.228Z,0
2022-12-01T21:34:31.074Z,0
2022-12-01T21:39:31.006Z,0
2022-12-01T21:44:30.966Z,0
2022-12-01T21:49:31.085Z,0
2022-12-01T21:54:30.999Z,0
2022-12-01T21:59:30.976Z,0
2022-12-01T22:04:31.094Z,0
2022-12-01T22:09:31.004Z,0
2022-12-01T22:14:31.068Z,0
2022-12-01T22:19:31.035Z,0
2022-12-01T22:24:30.975Z,0
2022-12-01T22:29:30.993Z,0
2022-12-01T22:34:31.057Z,0
2022-12-01T22:39:30.996Z,0
2022-12-01T22:44:31.034Z,0
2022-12-01T22:49:30.977Z,0
2022-12-01T22:54:31.000Z,0
2022-12-01T22:59:30.980Z,0
2022-12-01T23:04:30.984Z,0
2022-12-01T23:09:30.957Z,0
2022-12-01T23:14:31.076Z,0
2022-12-01T23:19:30.980Z,0
2022-12-01T23:24:34.297Z,0
2022-12-01T23:29:31.019Z,0
2022-12-01T23:34:31.147Z,0
2022-12-01T23:39:30.992Z,0
2022-12-01T23:44:30.998Z,0
2022-12-01T23:49:30.953Z,0
2022-12-01T23:54:31.000Z,0
2022-12-01T23:59:30.998Z,0
